The Farmers Guide 72-hour weather forecast

Enter Postcode:

Overcast

(00:00)

13.8°C

IP2 0SS

Wind Soil
Date Time Weather Temp Rain Humid Cloud Press (mph) Temp Moist
01/09 00:00 13.8°C 0.0mm 89% 81% 1015mb 10nnw (335 degrees) 14.7°C 0.2%
03:00 13.3°C 0.0mm 91% 88% 1015mb 10nw (325 degrees) 14.4°C 0.2%
06:00 13.1°C 0.0mm 90% 93% 1015mb 10nw (325 degrees) 14.1°C 0.2%
09:00 15.8°C 0.0mm 75% 66% 1017mb 13nnw (337 degrees) 14.5°C 0.2%
12:00 18.0°C 0.2mm 58% 34% 1017mb 12nnw (332 degrees) 16.1°C 0.2%
15:00 18.6°C 0.0mm 54% 14% 1018mb 9nnw (330 degrees) 17.5°C 0.2%
18:00 16.6°C 0.2mm 63% 11% 1018mb 5nw (320 degrees) 17.7°C 0.2%
21:00 13.4°C 0.0mm 74% 0% 1018mb 4nw (305 degrees) 16.2°C 0.2%
02/09 00:00 14.0°C 0.0mm 72% 21% 1018mb 6nww (292 degrees) 15.2°C 0.2%
03:00 12.0°C 0.0mm 85% 37% 1017mb 6nw (309 degrees) 14.3°C 0.2%
06:00 11.0°C 0.0mm 85% 19% 1017mb 8nw (317 degrees) 13.4°C 0.2%
09:00 15.0°C 0.0mm 68% 0% 1018mb 10nnw (332 degrees) 13.9°C 0.2%
12:00 16.7°C 0.5mm 63% 18% 1018mb 10n (353 degrees) 15.4°C 0.2%
15:00 17.5°C 0.6mm 55% 77% 1017mb 8n (6 degrees) 16.2°C 0.2%
18:00 15.1°C 1.5mm 69% 39% 1017mb 5nne (21 degrees) 16.4°C 0.2%
21:00 11.5°C 0.0mm 83% 1% 1018mb 3e (85 degrees) 15.0°C 0.2%
03/09 00:00 12.9°C 0.9mm 80% 36% 1018mb 5sww (253 degrees) 14.0°C 0.2%
03:00 10.8°C 0.0mm 91% 27% 1017mb 8nw (308 degrees) 13.2°C 0.2%
06:00 10.4°C 0.0mm 86% 51% 1017mb 9nnw (332 degrees) 12.4°C 0.2%
09:00 13.1°C 0.0mm 63% 90% 1018mb 12nw (321 degrees) 12.7°C 0.2%
12:00 15.5°C 0.0mm 50% 61% 1018mb 12nw (315 degrees) 14.2°C 0.2%
15:00 16.1°C 0.0mm 48% 25% 1017mb 11nw (309 degrees) 15.5°C 0.2%
18:00 14.4°C 0.0mm 59% 35% 1018mb 12nnw (332 degrees) 15.6°C 0.2%
21:00 11.9°C 0.0mm 71% 14% 1019mb 10nw (308 degrees) 14.5°C 0.2%
The Farmers Guide weather forecast is a free service for users of this website.
 
We now carry forecasts based on postcodes. Just enter your postcode and the weather page will display the forecast for the following 72 hours, broken down into three-hour intervals.
 
The forecast data provided for each three-hour period includes: a general graphic showing the likely weather conditions; average temperatures for the period; cloud cover; barometric pressure; wind speed and direction; humidity; and rainfall.
 
An indication of the likely soil temperature and soil moisture will also be displayed for most postcodes, although this data is not available for every area.
 
We hope you will find this service useful and would welcome any feedback from you.
 
 

Search

Read our full September issue here FREE!

Advertisments